createdAt,value
2023-01-17T00:01:34.183Z,1.02
2023-01-17T00:04:19.353Z,1.04
2023-01-17T00:07:04.622Z,1.07
2023-01-17T00:09:50.013Z,1.08
2023-01-17T00:12:16.662Z,1.10
2023-01-17T00:14:43.367Z,1.16
2023-01-17T00:17:10.036Z,1.14
2023-01-17T00:19:54.891Z,1.15
2023-01-17T00:22:41.948Z,1.15
2023-01-17T00:25:31.865Z,1.18
2023-01-17T00:28:16.423Z,1.19
2023-01-17T00:30:43.086Z,1.18
2023-01-17T00:33:09.623Z,1.19
2023-01-17T00:35:36.238Z,1.22
2023-01-17T00:38:09.929Z,1.22
2023-01-17T00:40:39.007Z,1.17
2023-01-17T00:43:26.032Z,1.08
2023-01-17T00:46:11.778Z,1.03
2023-01-17T00:48:57.989Z,0.84
2023-01-17T00:51:44.419Z,0.73
2023-01-17T00:54:30.142Z,0.69
2023-01-17T00:57:15.744Z,0.57
2023-01-17T01:00:01.203Z,0.52
2023-01-17T01:02:46.612Z,0.56
2023-01-17T01:05:32.981Z,0.60
2023-01-17T01:08:19.328Z,0.61
2023-01-17T01:11:06.190Z,0.56
2023-01-17T01:13:52.286Z,0.57
2023-01-17T01:16:38.281Z,0.63
2023-01-17T01:19:23.890Z,0.68
2023-01-17T01:22:09.134Z,0.77
2023-01-17T01:24:54.416Z,0.86
2023-01-17T01:27:39.311Z,0.85
2023-01-17T01:30:25.491Z,0.88
2023-01-17T01:33:10.697Z,0.98
2023-01-17T01:35:37.653Z,0.90
2023-01-17T01:38:04.980Z,0.83
2023-01-17T01:40:31.729Z,0.81
2023-01-17T01:43:00.303Z,0.82
2023-01-17T01:45:32.427Z,0.82
2023-01-17T01:48:17.659Z,0.83
2023-01-17T01:50:44.367Z,0.77
2023-01-17T01:53:11.697Z,0.71
2023-01-17T01:55:40.948Z,0.57
2023-01-17T01:58:16.454Z,0.44
2023-01-17T02:00:43.218Z,0.36
2023-01-17T02:03:17.020Z,0.43
2023-01-17T02:05:44.040Z,0.55
2023-01-17T02:08:13.761Z,0.56
2023-01-17T02:10:41.945Z,0.42
2023-01-17T02:13:10.412Z,0.34
2023-01-17T02:15:55.040Z,0.39
2023-01-17T02:18:24.646Z,0.47
2023-01-17T02:21:19.776Z,0.54
2023-01-17T02:23:46.285Z,0.54
2023-01-17T02:26:24.895Z,0.53
2023-01-17T02:29:28.530Z,0.53
2023-01-17T02:32:01.294Z,0.61
2023-01-17T02:34:51.344Z,0.61
2023-01-17T02:37:18.152Z,0.64
2023-01-17T02:39:56.039Z,0.62
2023-01-17T02:42:30.277Z,0.61
2023-01-17T02:44:56.871Z,0.62
2023-01-17T02:47:26.727Z,0.57
2023-01-17T02:50:13.869Z,0.60
2023-01-17T02:53:02.384Z,0.63
2023-01-17T02:55:37.880Z,0.63
2023-01-17T02:58:10.293Z,0.65
2023-01-17T03:00:40.853Z,0.69
2023-01-17T03:03:13.788Z,0.76
2023-01-17T03:05:48.588Z,0.78
2023-01-17T03:08:16.713Z,0.83
2023-01-17T03:10:44.839Z,0.89
2023-01-17T03:13:11.472Z,0.84
2023-01-17T03:15:39.513Z,0.85
2023-01-17T03:18:11.996Z,0.84
2023-01-17T03:20:38.686Z,0.88
2023-01-17T03:23:05.488Z,0.90
2023-01-17T03:25:32.362Z,0.90
2023-01-17T03:27:59.165Z,0.89
2023-01-17T03:30:25.867Z,0.94
2023-01-17T03:32:52.457Z,0.97
2023-01-17T03:35:19.141Z,0.99
2023-01-17T03:37:45.814Z,0.99
2023-01-17T03:40:15.558Z,0.93
2023-01-17T03:42:42.851Z,0.94
2023-01-17T03:45:09.867Z,0.99
2023-01-17T03:47:36.516Z,0.90
2023-01-17T03:50:03.924Z,0.89
2023-01-17T03:52:30.672Z,1.00
2023-01-17T03:54:57.534Z,0.94
2023-01-17T03:57:24.213Z,0.85
2023-01-17T03:59:50.921Z,1.00
2023-01-17T04:02:17.972Z,1.02
2023-01-17T04:04:44.607Z,0.98
2023-01-17T04:07:11.207Z,1.00
2023-01-17T04:09:38.058Z,0.98
2023-01-17T04:12:04.917Z,1.05
2023-01-17T04:14:31.634Z,1.02
2023-01-17T04:16:58.633Z,1.00
2023-01-17T04:19:25.546Z,0.95
2023-01-17T04:21:55.393Z,0.93
2023-01-17T04:24:23.990Z,0.97
2023-01-17T04:26:50.647Z,1.01
2023-01-17T04:29:17.367Z,1.03
2023-01-17T04:31:44.070Z,1.01
2023-01-17T04:34:10.819Z,1.03
2023-01-17T04:36:38.040Z,1.07
2023-01-17T04:39:04.782Z,1.10
2023-01-17T04:41:31.583Z,1.11
2023-01-17T04:43:58.258Z,1.08
2023-01-17T04:46:25.127Z,1.05
2023-01-17T04:48:51.766Z,1.09
2023-01-17T04:51:18.389Z,1.04
2023-01-17T04:53:45.185Z,1.00
2023-01-17T04:56:11.874Z,0.93
2023-01-17T04:58:38.550Z,0.93
2023-01-17T05:01:07.188Z,0.92
2023-01-17T05:03:34.759Z,0.85
2023-01-17T05:06:04.192Z,0.83
2023-01-17T05:08:30.805Z,0.84
2023-01-17T05:10:57.719Z,0.83
2023-01-17T05:13:24.336Z,0.80
2023-01-17T05:15:51.143Z,0.75
2023-01-17T05:18:18.773Z,0.70
2023-01-17T05:20:45.705Z,0.75
2023-01-17T05:23:12.385Z,0.80
2023-01-17T05:25:44.292Z,0.80
2023-01-17T05:28:12.955Z,0.84
2023-01-17T05:30:39.744Z,0.74
2023-01-17T05:33:08.029Z,0.69
2023-01-17T05:35:34.877Z,0.66
2023-01-17T05:38:02.128Z,0.67
2023-01-17T05:40:31.078Z,0.70
2023-01-17T05:42:59.528Z,0.74
2023-01-17T05:45:28.211Z,0.79
2023-01-17T05:47:56.276Z,0.87
2023-01-17T05:50:25.706Z,0.89
2023-01-17T05:52:55.725Z,1.00
2023-01-17T05:55:23.824Z,1.04
2023-01-17T05:57:50.831Z,1.01
2023-01-17T06:00:18.517Z,1.07
2023-01-17T06:02:46.275Z,1.07
2023-01-17T06:05:14.141Z,1.10
2023-01-17T06:07:43.934Z,1.12
2023-01-17T06:10:11.096Z,1.13
2023-01-17T06:12:37.853Z,1.16
2023-01-17T06:15:04.873Z,1.20
2023-01-17T06:17:31.429Z,1.13
2023-01-17T06:19:58.146Z,0.98
2023-01-17T06:22:24.844Z,0.97
2023-01-17T06:24:51.500Z,1.08
2023-01-17T06:27:18.243Z,1.18
2023-01-17T06:29:45.032Z,1.26
2023-01-17T06:32:13.360Z,1.25
2023-01-17T06:34:41.055Z,1.39
2023-01-17T06:37:07.929Z,1.47
2023-01-17T06:39:34.632Z,1.50
2023-01-17T06:42:01.383Z,1.63
2023-01-17T06:44:28.040Z,1.71
2023-01-17T06:46:54.713Z,1.73
2023-01-17T06:49:21.399Z,1.68
2023-01-17T06:51:48.248Z,1.64
2023-01-17T06:54:15.168Z,1.82
2023-01-17T06:56:42.490Z,1.82
2023-01-17T06:59:09.091Z,1.90
2023-01-17T07:01:36.689Z,1.96
2023-01-17T07:04:04.698Z,1.87
2023-01-17T07:06:31.347Z,2.03
2023-01-17T07:08:59.627Z,2.04
2023-01-17T07:11:27.429Z,2.14
2023-01-17T07:13:54.269Z,2.12
2023-01-17T07:16:21.098Z,2.13
2023-01-17T07:18:51.911Z,2.22
2023-01-17T07:21:18.739Z,2.32
2023-01-17T07:23:45.611Z,2.41
2023-01-17T07:26:12.284Z,2.52
2023-01-17T07:28:39.058Z,2.59
2023-01-17T07:31:08.087Z,2.64
2023-01-17T07:33:35.327Z,2.70
2023-01-17T07:36:07.471Z,2.83
2023-01-17T07:38:34.938Z,2.91
2023-01-17T07:41:01.735Z,2.88
2023-01-17T07:43:28.454Z,2.96
2023-01-17T07:45:58.221Z,2.98
2023-01-17T07:48:27.967Z,3.07
2023-01-17T07:50:56.094Z,3.19
2023-01-17T07:53:27.770Z,3.19
2023-01-17T07:55:54.607Z,3.17
2023-01-17T07:58:21.874Z,3.12
2023-01-17T08:00:48.598Z,3.22
2023-01-17T08:03:17.811Z,3.23
2023-01-17T08:05:53.719Z,3.28
2023-01-17T08:08:20.317Z,3.27
2023-01-17T08:10:47.301Z,3.31
2023-01-17T08:13:13.924Z,3.36
2023-01-17T08:15:40.616Z,3.24
2023-01-17T08:18:07.301Z,3.30
2023-01-17T08:20:33.912Z,3.33
2023-01-17T08:23:00.493Z,3.44
2023-01-17T08:25:27.468Z,3.50
2023-01-17T08:27:58.351Z,3.49
2023-01-17T08:30:25.974Z,3.49
2023-01-17T08:32:52.725Z,3.52
2023-01-17T08:35:20.294Z,3.63
2023-01-17T08:37:47.890Z,3.59
2023-01-17T08:40:18.174Z,3.59
2023-01-17T08:42:44.796Z,3.63
2023-01-17T08:45:12.839Z,3.62
2023-01-17T08:47:39.587Z,3.59
2023-01-17T08:50:07.004Z,3.58
2023-01-17T08:52:34.751Z,3.55
2023-01-17T08:55:02.106Z,3.62
2023-01-17T08:57:31.173Z,3.65
2023-01-17T08:59:57.842Z,3.70
2023-01-17T09:02:24.809Z,3.71
2023-01-17T09:04:51.854Z,3.78
2023-01-17T09:07:20.346Z,3.82
2023-01-17T09:09:47.186Z,3.75
2023-01-17T09:12:13.845Z,3.76
2023-01-17T09:14:40.438Z,3.80
2023-01-17T09:17:07.129Z,3.82
2023-01-17T09:19:35.446Z,3.82
2023-01-17T09:22:04.660Z,3.74
2023-01-17T09:24:32.834Z,3.81
2023-01-17T09:27:00.023Z,3.77
2023-01-17T09:29:26.652Z,3.93
2023-01-17T09:31:53.609Z,4.09
2023-01-17T09:34:20.190Z,4.32
2023-01-17T09:36:46.973Z,4.48
2023-01-17T09:39:15.392Z,4.64
2023-01-17T09:42:01.980Z,4.69
2023-01-17T09:44:39.126Z,4.72
2023-01-17T09:47:39.357Z,4.67
2023-01-17T09:50:37.560Z,4.61
2023-01-17T09:53:18.602Z,4.58
2023-01-17T09:55:57.012Z,4.40
2023-01-17T09:58:48.221Z,4.35
2023-01-17T10:01:22.813Z,4.24
2023-01-17T10:03:56.963Z,4.19
2023-01-17T10:06:42.480Z,4.12
2023-01-17T10:09:26.410Z,4.05
2023-01-17T10:12:10.263Z,4.03
2023-01-17T10:15:07.235Z,4.03
2023-01-17T10:17:36.439Z,4.11
2023-01-17T10:20:18.886Z,4.09
2023-01-17T10:23:07.111Z,4.04
2023-01-17T10:25:39.409Z,4.08
2023-01-17T10:28:28.123Z,4.08
2023-01-17T10:30:59.703Z,4.16
2023-01-17T10:34:05.699Z,4.19
2023-01-17T10:36:40.373Z,4.37
2023-01-17T10:39:20.235Z,4.45
2023-01-17T10:41:58.080Z,4.54
2023-01-17T10:44:55.474Z,4.67
2023-01-17T10:47:28.798Z,4.78
2023-01-17T10:49:59.569Z,4.95
2023-01-17T10:52:53.392Z,5.04
2023-01-17T10:55:23.891Z,5.12
2023-01-17T10:57:52.670Z,5.01
2023-01-17T11:00:31.137Z,5.03
2023-01-17T11:02:58.695Z,5.21
2023-01-17T11:05:30.887Z,5.22
2023-01-17T11:07:58.857Z,5.22
2023-01-17T11:10:48.389Z,5.47
2023-01-17T11:13:36.973Z,5.74
2023-01-17T11:16:08.960Z,5.87
2023-01-17T11:18:39.265Z,6.02
2023-01-17T11:21:12.337Z,6.07
2023-01-17T11:23:42.673Z,6.15
2023-01-17T11:26:21.173Z,6.32
2023-01-17T11:28:47.971Z,6.30
2023-01-17T11:31:16.712Z,6.33
2023-01-17T11:33:54.049Z,6.40
2023-01-17T11:36:27.515Z,6.52
2023-01-17T11:39:03.190Z,6.55
2023-01-17T11:41:40.320Z,6.56
2023-01-17T11:44:33.499Z,6.59
2023-01-17T11:47:12.132Z,6.58
2023-01-17T11:49:49.232Z,6.63
2023-01-17T11:52:23.404Z,6.69
2023-01-17T11:54:51.672Z,6.74
2023-01-17T11:57:18.266Z,6.78
2023-01-17T11:59:45.917Z,6.78
2023-01-17T12:02:24.475Z,6.61
2023-01-17T12:05:01.313Z,6.59
2023-01-17T12:07:55.969Z,6.68
2023-01-17T12:10:44.180Z,6.86
2023-01-17T12:13:36.521Z,6.96
2023-01-17T12:16:24.478Z,7.03
2023-01-17T12:18:56.541Z,7.30
2023-01-17T12:22:02.594Z,7.44
2023-01-17T12:25:00.048Z,7.32
2023-01-17T12:27:29.531Z,7.30
2023-01-17T12:30:30.855Z,7.40
2023-01-17T12:33:36.775Z,7.51
2023-01-17T12:36:17.667Z,7.55
2023-01-17T12:38:50.076Z,7.52
2023-01-17T12:41:16.679Z,7.46
2023-01-17T12:43:44.826Z,7.28
2023-01-17T12:46:34.372Z,7.29
2023-01-17T12:49:19.537Z,7.28
2023-01-17T12:51:50.359Z,7.22
2023-01-17T12:54:29.068Z,7.19
2023-01-17T12:57:02.847Z,7.16
2023-01-17T12:59:51.344Z,7.08
2023-01-17T13:02:46.087Z,7.03
2023-01-17T13:05:26.111Z,7.00
2023-01-17T13:08:01.075Z,6.97
2023-01-17T13:10:35.788Z,6.99
2023-01-17T13:13:13.456Z,7.01
2023-01-17T13:15:42.915Z,7.03
2023-01-17T13:18:15.629Z,6.99
2023-01-17T13:20:56.260Z,6.96
2023-01-17T13:23:31.030Z,6.87
2023-01-17T13:26:00.207Z,6.93
2023-01-17T13:28:53.544Z,6.94
2023-01-17T13:31:39.680Z,6.96
2023-01-17T13:34:32.284Z,6.96
2023-01-17T13:37:06.931Z,7.03
2023-01-17T13:40:03.458Z,7.03
2023-01-17T13:43:02.712Z,6.96
2023-01-17T13:45:38.203Z,6.83
2023-01-17T13:48:20.659Z,6.78
2023-01-17T13:50:57.549Z,6.68
2023-01-17T13:53:31.551Z,6.67
2023-01-17T13:56:27.250Z,6.57
2023-01-17T13:59:10.935Z,6.53
2023-01-17T14:01:43.691Z,6.56
2023-01-17T14:04:15.652Z,6.47
2023-01-17T14:06:52.934Z,6.40
2023-01-17T14:09:28.163Z,6.29
2023-01-17T14:11:57.241Z,6.24
2023-01-17T14:14:43.297Z,6.13
2023-01-17T14:17:16.449Z,6.07
2023-01-17T14:19:53.808Z,6.06
2023-01-17T14:22:20.417Z,6.09
2023-01-17T14:25:22.445Z,6.11
2023-01-17T14:27:53.894Z,6.09
2023-01-17T14:30:32.687Z,6.02
2023-01-17T14:32:59.368Z,6.02
2023-01-17T14:35:40.708Z,5.93
2023-01-17T14:38:19.141Z,5.86
2023-01-17T14:41:01.721Z,5.87
2023-01-17T14:43:33.042Z,5.81
2023-01-17T14:46:03.808Z,5.72
2023-01-17T14:48:30.973Z,5.60
2023-01-17T14:51:00.826Z,5.50
2023-01-17T14:53:29.937Z,5.37
2023-01-17T14:56:17.233Z,5.30
2023-01-17T14:58:46.637Z,5.29
2023-01-17T15:01:19.586Z,5.22
2023-01-17T15:03:57.121Z,5.08
2023-01-17T15:06:48.718Z,5.06
2023-01-17T15:09:25.896Z,4.97
2023-01-17T15:11:54.487Z,4.93
2023-01-17T15:14:34.633Z,4.83
2023-01-17T15:17:24.603Z,4.71
2023-01-17T15:20:00.029Z,4.64
2023-01-17T15:22:29.220Z,4.58
2023-01-17T15:24:56.922Z,4.50
2023-01-17T15:27:26.316Z,4.45
2023-01-17T15:29:54.113Z,4.36
2023-01-17T15:32:27.207Z,4.31
2023-01-17T15:34:54.280Z,4.28
2023-01-17T15:37:24.744Z,4.25
2023-01-17T15:40:23.268Z,4.23
2023-01-17T15:43:07.014Z,4.18
2023-01-17T15:45:34.143Z,4.17
2023-01-17T15:48:51.525Z,4.11
2023-01-17T15:51:35.187Z,4.09
2023-01-17T15:54:45.857Z,4.10
2023-01-17T15:57:40.861Z,4.08
2023-01-17T16:00:23.209Z,4.01
2023-01-17T16:02:55.865Z,3.97
2023-01-17T16:05:23.278Z,3.89
2023-01-17T16:08:17.205Z,3.90
2023-01-17T16:10:44.748Z,3.80
2023-01-17T16:13:13.606Z,3.80
2023-01-17T16:15:47.065Z,3.79
2023-01-17T16:18:23.997Z,3.75
2023-01-17T16:23:52.565Z,3.56
2023-01-17T16:26:19.312Z,3.55
2023-01-17T16:28:46.077Z,3.52
2023-01-17T16:31:12.888Z,3.50
2023-01-17T16:33:57.396Z,3.50
2023-01-17T16:36:23.966Z,3.44
2023-01-17T16:38:51.934Z,3.45
2023-01-17T16:41:19.661Z,3.43
2023-01-17T16:43:48.215Z,3.39
2023-01-17T16:46:15.600Z,3.36
2023-01-17T16:48:42.290Z,3.35
2023-01-17T16:51:09.101Z,3.33
2023-01-17T16:53:37.071Z,3.29
2023-01-17T16:56:12.123Z,3.31
2023-01-17T16:58:39.148Z,3.23
2023-01-17T17:01:17.334Z,3.22
2023-01-17T17:03:45.246Z,3.25
2023-01-17T17:06:12.657Z,3.23
2023-01-17T17:08:39.985Z,3.22
2023-01-17T17:11:20.006Z,3.20
2023-01-17T17:13:48.945Z,3.20
2023-01-17T17:16:20.937Z,3.25
2023-01-17T17:18:55.134Z,3.28
2023-01-17T17:21:22.104Z,3.31
2023-01-17T17:23:54.849Z,3.29
2023-01-17T17:26:21.438Z,3.26
2023-01-17T17:28:52.457Z,3.17
2023-01-17T17:31:19.712Z,3.12
2023-01-17T17:33:46.625Z,3.18
2023-01-17T17:36:13.590Z,3.10
2023-01-17T17:38:53.235Z,3.05
2023-01-17T17:41:26.815Z,2.90
2023-01-17T17:43:54.192Z,2.87
2023-01-17T17:46:22.745Z,2.94
2023-01-17T17:48:49.798Z,3.04
2023-01-17T17:51:38.491Z,3.07
2023-01-17T17:54:10.451Z,3.05
2023-01-17T17:56:37.999Z,3.07
2023-01-17T17:59:06.977Z,3.03
2023-01-17T18:01:33.713Z,3.02
2023-01-17T18:04:04.195Z,2.96
2023-01-17T18:06:30.926Z,2.93
2023-01-17T18:08:57.499Z,2.91
2023-01-17T18:11:26.207Z,2.93
2023-01-17T18:13:54.993Z,2.97
2023-01-17T18:16:30.800Z,2.99
2023-01-17T18:18:59.036Z,2.89
2023-01-17T18:21:28.655Z,2.88
2023-01-17T18:24:00.962Z,2.87
2023-01-17T18:26:41.790Z,2.91
2023-01-17T18:29:11.041Z,2.83
2023-01-17T18:31:37.770Z,2.79
2023-01-17T18:34:06.898Z,2.80
2023-01-17T18:36:37.121Z,2.79
2023-01-17T18:39:18.956Z,2.77
2023-01-17T18:41:46.154Z,2.80
2023-01-17T18:44:13.108Z,2.73
2023-01-17T18:46:42.049Z,2.65
2023-01-17T18:49:12.419Z,2.57
2023-01-17T18:51:39.212Z,2.58
2023-01-17T18:54:07.345Z,2.63
2023-01-17T18:56:35.137Z,2.70
2023-01-17T18:59:02.511Z,2.80
2023-01-17T19:04:38.455Z,2.73
2023-01-17T19:07:05.180Z,2.66
2023-01-17T19:09:32.271Z,2.62
2023-01-17T19:12:00.072Z,2.52
2023-01-17T19:14:26.895Z,2.40
2023-01-17T19:16:53.615Z,2.36
2023-01-17T19:19:20.288Z,2.35
2023-01-17T19:21:51.563Z,2.30
2023-01-17T19:24:18.255Z,2.37
2023-01-17T19:26:45.604Z,2.37
2023-01-17T19:29:12.356Z,2.42
2023-01-17T19:31:44.489Z,2.35
2023-01-17T19:34:14.188Z,2.29
2023-01-17T19:36:40.825Z,2.30
2023-01-17T19:39:09.667Z,2.34
2023-01-17T19:41:46.364Z,2.40
2023-01-17T19:44:14.109Z,2.53
2023-01-17T19:46:40.824Z,2.61
2023-01-17T19:49:09.131Z,2.66
2023-01-17T19:51:36.547Z,2.70
2023-01-17T19:54:04.279Z,2.77
2023-01-17T19:56:31.051Z,2.84
2023-01-17T19:59:01.156Z,2.88
2023-01-17T20:01:30.740Z,2.95
2023-01-17T20:03:58.605Z,3.00
2023-01-17T20:06:28.996Z,3.05
2023-01-17T20:08:56.741Z,3.17
2023-01-17T20:11:24.826Z,3.38
2023-01-17T20:13:54.338Z,3.40
2023-01-17T20:16:22.653Z,3.42
2023-01-17T20:18:49.522Z,3.39
2023-01-17T20:21:18.627Z,3.40
2023-01-17T20:23:47.157Z,3.36
2023-01-17T20:26:21.632Z,3.37
2023-01-17T20:28:49.019Z,3.29
2023-01-17T20:31:24.244Z,3.28
2023-01-17T20:33:53.320Z,3.23
2023-01-17T20:36:25.639Z,3.15
2023-01-17T20:38:54.479Z,3.17
2023-01-17T20:41:28.747Z,3.11
2023-01-17T20:43:57.635Z,3.23
2023-01-17T20:46:27.016Z,3.28
2023-01-17T20:48:57.873Z,3.34
2023-01-17T20:51:26.781Z,3.41
2023-01-17T20:53:59.224Z,3.44
2023-01-17T20:56:26.582Z,3.51
2023-01-17T20:58:54.313Z,3.56
2023-01-17T21:01:23.064Z,3.84
2023-01-17T21:03:54.059Z,4.09
2023-01-17T21:06:23.639Z,4.20
2023-01-17T21:08:51.622Z,4.16
2023-01-17T21:11:30.697Z,4.12
2023-01-17T21:13:57.614Z,4.10
2023-01-17T21:16:24.287Z,4.16
2023-01-17T21:18:52.687Z,4.17
2023-01-17T21:21:24.303Z,4.28
2023-01-17T21:23:52.993Z,4.39
2023-01-17T21:26:21.904Z,4.49
2023-01-17T21:28:49.991Z,4.44
2023-01-17T21:31:25.038Z,4.36
2023-01-17T21:33:55.946Z,4.20
2023-01-17T21:36:26.191Z,4.15
2023-01-17T21:38:57.029Z,4.11
2023-01-17T21:41:27.413Z,4.13
2023-01-17T21:43:56.113Z,4.31
2023-01-17T21:46:23.548Z,4.49
2023-01-17T21:48:50.351Z,4.70
2023-01-17T21:51:17.508Z,4.50
2023-01-17T21:53:44.114Z,4.55
2023-01-17T21:56:31.676Z,4.54
2023-01-17T21:58:59.097Z,4.49
2023-01-17T22:01:30.208Z,4.45
2023-01-17T22:03:59.963Z,4.34
2023-01-17T22:06:29.495Z,4.42
2023-01-17T22:08:56.375Z,4.50
2023-01-17T22:11:25.201Z,4.51
2023-01-17T22:13:53.030Z,4.59
2023-01-17T22:16:23.394Z,4.64
2023-01-17T22:18:50.892Z,4.79
2023-01-17T22:21:26.336Z,5.03
2023-01-17T22:23:58.566Z,5.66
2023-01-17T22:26:28.351Z,6.10
2023-01-17T22:28:55.461Z,6.15
2023-01-17T22:31:27.219Z,6.22
2023-01-17T22:34:04.433Z,6.29
2023-01-17T22:36:34.835Z,6.12
2023-01-17T22:39:01.429Z,6.30
2023-01-17T22:41:34.703Z,6.00
2023-01-17T22:44:02.497Z,5.80
2023-01-17T22:46:31.109Z,5.92
2023-01-17T22:48:57.935Z,5.98
2023-01-17T22:51:32.669Z,5.85
2023-01-17T22:54:00.949Z,5.75
2023-01-17T22:56:32.449Z,5.53
2023-01-17T22:59:03.322Z,5.36
2023-01-17T23:01:32.611Z,5.31
2023-01-17T23:04:02.715Z,5.28
2023-01-17T23:06:33.761Z,5.73
2023-01-17T23:09:06.242Z,5.92
2023-01-17T23:11:47.136Z,5.74
2023-01-17T23:14:23.567Z,5.61
2023-01-17T23:17:13.086Z,5.55
2023-01-17T23:19:54.767Z,5.52
2023-01-17T23:22:27.785Z,5.67
2023-01-17T23:24:57.250Z,5.64
2023-01-17T23:27:44.345Z,5.55
2023-01-17T23:30:14.582Z,5.69
2023-01-17T23:32:48.823Z,5.83
2023-01-17T23:35:17.339Z,5.80
2023-01-17T23:38:02.545Z,5.68
2023-01-17T23:40:31.697Z,5.58
2023-01-17T23:43:16.830Z,5.67
2023-01-17T23:45:43.467Z,5.76
2023-01-17T23:48:10.841Z,5.76
2023-01-17T23:50:44.212Z,5.71
2023-01-17T23:53:16.138Z,5.65
2023-01-17T23:55:45.693Z,5.60
2023-01-17T23:58:12.774Z,5.60
